Wind From: 10-12-2017 19:04 Until: 11-12-2017 16:00 warning for: Wind Level: Orange info button

Power and phone distribution networks may be disrupted for relatively long periods., Roofs and chimneys can be damaged. , Tree branches may break. , Vehicles can be deported. , Traffic may be disrupted, particularly on secondary roads in forest areas. Limit your trips. , Limit your speed in highway driving, especially if you drive a vehicle or hitch sensitive to wind. , Do not go for walks in forests or along the coast., In town, be vigilant against possible falling objects., Do not work on roofs and do not touch any electrical line fallen on the ground., Store or secure sensitive objects to wind or likely to be damaged., Always install power generators outside buildings. 


Meteo18 Weather Cam more information Meteo18 Weather Cam


Thunder radar more information blitzortung!


Rain radar more information rain snow radar


Visit our other weather sites:

Template documentation
and downloads

And another site



Weather Underground History page Text

Daily Summary for July 27, 2017 Units:  English    Metric   Both
« Previous Day
Next Day »
Daily Weekly Monthly Yearly Custom
  High: Low: Average:
Temperature: 71.6 °F 61.2 °F 65.1 °F
Dew Point: 66.9 °F 59.2 °F 62.4 °F
Humidity: 96 % 78 % 91 %
Wind Speed: 17 mph 0 mph 4.5 mph
Wind Gust: 21 mph - -
Wind:- - WSW
Pressure: 30 in 29.9 in -
Precipitation: 0.23 in    
Historical Graphs
 
 
Tabular Data for July 27, 2017
Time Temperature Dew Point Pressure Wind Wind Speed Wind Gust Humidity Rainfall Rate (Hourly)
00:02 64.6 °F 62.4 °F 30 in SSW 9 mph 10 mph 93 % 0 in
00:12 64.6 °F 62.4 °F 30 in SSW 5 mph 10 mph 93 % 0 in
00:17 64.6 °F 62.4 °F 30 in WSW 2 mph 12 mph 93 % 0 in
00:22 64.6 °F 62.4 °F 30 in SW 3 mph 8 mph 93 % 0 in
00:32 64.4 °F 62.4 °F 30 in SW 3 mph 9 mph 93 % 0 in
00:37 64.4 °F 62.4 °F 30 in WSW 3 mph 9 mph 93 % 0 in
00:42 64.4 °F 62.4 °F 30 in SW 6 mph 9 mph 93 % 0 in
00:47 64.2 °F 61.9 °F 30 in SSW 3 mph 9 mph 92 % 0 in
00:52 64.2 °F 61.9 °F 30 in West 6 mph 10 mph 92 % 0 in
01:02 64 °F 61.7 °F 30 in SSW 2 mph 10 mph 92 % 0 in
01:12 63.7 °F 61.3 °F 30 in WSW 2 mph 10 mph 92 % 0 in
01:17 63.5 °F 61.2 °F 30 in WSW 2 mph 8 mph 92 % 0 in
01:22 63.3 °F 61 °F 30 in SW 8 mph 8 mph 92 % 0 in
01:27 63.3 °F 61 °F 30 in SSW 3 mph 8 mph 92 % 0 in
01:32 63.1 °F 60.8 °F 30 in SW 3 mph 8 mph 92 % 0 in
01:37 63.1 °F 61.2 °F 30 in SW 3 mph 8 mph 93 % 0 in
01:42 63 °F 61 °F 30 in SW 5 mph 8 mph 93 % 0 in
01:47 63 °F 61 °F 30 in SSW 1 mph 8 mph 93 % 0 in
01:52 62.8 °F 60.8 °F 30 in SW 5 mph 8 mph 93 % 0 in
01:57 62.8 °F 60.8 °F 30 in SW 3 mph 7 mph 93 % 0 in
02:02 62.6 °F 60.6 °F 30 in SSW 1 mph 7 mph 93 % 0 in
02:12 62.4 °F 60.4 °F 30 in SW 3 mph 7 mph 93 % 0 in
02:17 62.4 °F 60.4 °F 30 in SW 4 mph 8 mph 93 % 0 in
02:22 62.4 °F 60.1 °F 30 in SW 3 mph 9 mph 92 % 0 in
02:27 62.4 °F 60.1 °F 30 in SSW 2 mph 9 mph 92 % 0 in
02:32 62.2 °F 59.9 °F 30 in SW 5 mph 9 mph 92 % 0 in
02:37 62.2 °F 59.9 °F 30 in SW 2 mph 7 mph 92 % 0 in
02:42 62.1 °F 59.7 °F 30 in WSW 6 mph 7 mph 92 % 0 in
02:47 62.1 °F 59.7 °F 30 in WSW 3 mph 7 mph 92 % 0 in
02:52 62.1 °F 59.7 °F 30 in SW 3 mph 7 mph 92 % 0 in
03:02 62.1 °F 59.7 °F 29.9 in SW 3 mph 8 mph 92 % 0 in
03:07 62.1 °F 59.7 °F 29.9 in SW 1 mph 9 mph 92 % 0 in
03:12 62.1 °F 59.7 °F 29.9 in SW 4 mph 9 mph 92 % 0 in
03:17 62.1 °F 59.7 °F 29.9 in SSW 2 mph 9 mph 92 % 0 in
03:22 62.1 °F 59.7 °F 29.9 in SW 2 mph 8 mph 92 % 0 in
03:32 62.1 °F 59.7 °F 29.9 in SW 4 mph 10 mph 92 % 0 in
03:37 62.1 °F 59.7 °F 29.9 in WSW 5 mph 10 mph 92 % 0 in
03:47 62.1 °F 59.7 °F 29.9 in SSW 3 mph 10 mph 92 % 0 in
03:52 62.1 °F 59.7 °F 29.9 in SW 4 mph 8 mph 92 % 0 in
04:02 61.9 °F 59.9 °F 29.9 in SW 4 mph 6 mph 93 % 0 in
04:12 61.9 °F 59.9 °F 29.9 in West 3 mph 7 mph 93 % 0 in
04:17 61.9 °F 59.9 °F 29.9 in SSW 3 mph 7 mph 93 % 0 in
04:22 61.9 °F 59.9 °F 29.9 in SW 3 mph 6 mph 93 % 0 in
04:32 61.9 °F 59.9 °F 29.9 in SW 3 mph 8 mph 93 % 0 in
04:37 62.1 °F 60.1 °F 29.9 in SW 5 mph 8 mph 93 % 0 in
04:42 62.1 °F 60.1 °F 29.9 in SW 4 mph 10 mph 93 % 0 in
04:47 62.1 °F 60.1 °F 29.9 in SSE 3 mph 10 mph 93 % 0 in
04:52 61.9 °F 59.9 °F 29.9 in SW 5 mph 10 mph 93 % 0 in
04:57 61.9 °F 59.9 °F 29.9 in SW 2 mph 10 mph 93 % 0 in
05:02 61.9 °F 59.9 °F 29.9 in WSW 3 mph 11 mph 93 % 0 in
05:12 61.7 °F 59.7 °F 29.9 in SSW 2 mph 11 mph 93 % 0 in
05:17 61.7 °F 59.7 °F 29.9 in South 1 mph 11 mph 93 % 0 in
05:22 61.7 °F 59.4 °F 29.9 in SW 5 mph 8 mph 92 % 0 in
05:32 61.5 °F 59.5 °F 29.9 in SSW 1 mph 7 mph 93 % 0 in
05:37 61.5 °F 59.5 °F 29.9 in SW 3 mph 7 mph 93 % 0 in
05:42 61.5 °F 59.5 °F 29.9 in West 1 mph 5 mph 93 % 0 in
05:47 61.5 °F 59.5 °F 29.9 in SW 1 mph 5 mph 93 % 0 in
05:57 61.5 °F 59.2 °F 29.9 in SW 2 mph 4 mph 92 % 0 in
06:02 61.5 °F 59.2 °F 29.9 in SW 3 mph 7 mph 92 % 0 in
06:12 61.5 °F 59.2 °F 29.9 in SW 2 mph 10 mph 92 % 0 in
06:17 61.5 °F 59.2 °F 29.9 in WSW 3 mph 10 mph 92 % 0 in
06:22 61.5 °F 59.2 °F 29.9 in SW 2 mph 7 mph 92 % 0 in
06:32 61.5 °F 59.5 °F 29.9 in WSW 2 mph 7 mph 93 % 0 in
06:37 61.5 °F 59.5 °F 29.9 in SW 4 mph 5 mph 93 % 0 in
06:42 61.5 °F 59.5 °F 29.9 in WSW 3 mph 5 mph 93 % 0 in
06:47 61.5 °F 59.5 °F 29.9 in WSW 5 mph 5 mph 93 % 0 in
06:52 61.5 °F 59.5 °F 29.9 in WSW 2 mph 9 mph 93 % 0 in
06:57 61.3 °F 59.5 °F 29.9 in SW 3 mph 9 mph 94 % 0 in
07:02 61.3 °F 59.5 °F 29.9 in SW 5 mph 9 mph 94 % 0 in
07:12 61.3 °F 59.5 °F 29.9 in SW 6 mph 9 mph 94 % 0 in
07:17 61.3 °F 59.5 °F 29.9 in SW 3 mph 9 mph 94 % 0 in
07:22 61.3 °F 59.5 °F 29.9 in WSW 5 mph 9 mph 94 % 0 in
07:32 61.3 °F 59.9 °F 29.9 in SW 5 mph 9 mph 95 % 0 in
07:37 61.3 °F 59.9 °F 29.9 in SSW 4 mph 9 mph 95 % 0 in
07:42 61.2 °F 59.7 °F 29.9 in WSW 9 mph 10 mph 95 % 0 in
07:47 61.2 °F 59.7 °F 29.9 in SSW 3 mph 10 mph 95 % 0 in
07:52 61.2 °F 59.7 °F 29.9 in SSW 7 mph 11 mph 95 % 0 in
08:02 61.2 °F 60.1 °F 29.9 in SW 7 mph 11 mph 96 % 0 in
08:12 61.2 °F 60.1 °F 29.9 in SW 7 mph 11 mph 96 % 0 in
08:17 61.2 °F 60.1 °F 29.9 in WSW 6 mph 11 mph 96 % 0 in
08:27 61.2 °F 60.1 °F 29.9 in SW 5 mph 10 mph 96 % 0.02 in
08:32 61.2 °F 60.1 °F 29.9 in SW 4 mph 12 mph 96 % 0.02 in
08:42 61.3 °F 60.3 °F 29.9 in SSW 5 mph 10 mph 96 % 0.02 in
08:52 61.5 °F 60.4 °F 29.9 in South 5 mph 10 mph 96 % 0.03 in
08:57 61.5 °F 60.4 °F 29.9 in SW 8 mph 10 mph 96 % 0.03 in
09:02 61.5 °F 60.4 °F 29.9 in WSW 6 mph 13 mph 96 % 0.03 in
09:12 61.5 °F 60.4 °F 29.9 in SW 6 mph 13 mph 96 % 0.03 in
09:17 61.5 °F 60.4 °F 29.9 in SW 6 mph 13 mph 96 % 0.03 in
09:22 61.5 °F 60.4 °F 29.9 in WSW 3 mph 13 mph 96 % 0.02 in
09:27 61.5 °F 60.4 °F 29.9 in WSW 6 mph 13 mph 96 % 0.02 in
09:32 61.5 °F 60.4 °F 29.9 in WSW 8 mph 13 mph 96 % 0.01 in
09:42 61.9 °F 60.8 °F 29.9 in SW 6 mph 13 mph 96 % 0.01 in
09:52 61.9 °F 60.8 °F 29.9 in SW 4 mph 13 mph 96 % 0 in
09:57 62.1 °F 61 °F 29.9 in WSW 5 mph 13 mph 96 % 0 in
10:02 62.1 °F 61 °F 29.9 in SW 6 mph 13 mph 96 % 0.01 in
10:12 62.2 °F 61.2 °F 29.9 in SW 4 mph 11 mph 96 % 0.01 in
10:17 62.2 °F 61.2 °F 29.9 in SW 9 mph 11 mph 96 % 0.01 in
10:22 62.2 °F 61.2 °F 29.9 in SW 4 mph 12 mph 96 % 0.02 in
10:32 62.4 °F 61.3 °F 29.9 in SW 6 mph 14 mph 96 % 0.02 in
10:37 62.6 °F 61.5 °F 29.9 in SW 7 mph 14 mph 96 % 0.02 in
10:42 62.8 °F 61.7 °F 29.9 in WSW 3 mph 14 mph 96 % 0.02 in
10:47 62.8 °F 61.7 °F 29.9 in SW 5 mph 14 mph 96 % 0.02 in
10:52 62.8 °F 61.7 °F 29.9 in SW 7 mph 10 mph 96 % 0.02 in
10:57 63 °F 61.9 °F 29.9 in SW 8 mph 10 mph 96 % 0.02 in
11:02 62.8 °F 61.7 °F 29.9 in SW 8 mph 14 mph 96 % 0.02 in
11:07 63 °F 61.9 °F 29.9 in SSW 3 mph 14 mph 96 % 0.02 in
11:12 63 °F 61.9 °F 29.9 in SW 10 mph 14 mph 96 % 0.02 in
11:17 63 °F 61.9 °F 29.9 in SW 6 mph 14 mph 96 % 0.02 in
11:22 63.1 °F 62.1 °F 29.9 in SW 6 mph 14 mph 96 % 0.02 in
11:27 63.3 °F 62.2 °F 29.9 in WSW 8 mph 14 mph 96 % 0.02 in
11:32 63.5 °F 62.4 °F 29.9 in SW 10 mph 15 mph 96 % 0.02 in
11:37 63.7 °F 62.6 °F 29.9 in SSW 8 mph 15 mph 96 % 0.02 in
11:42 63.9 °F 62.8 °F 29.9 in SW 17 mph 17 mph 96 % 0.02 in
11:47 63.7 °F 62.2 °F 29.9 in SW 9 mph 17 mph 95 % 0.02 in
11:52 63.9 °F 62.8 °F 29.9 in SW 7 mph 17 mph 96 % 0.02 in
12:02 63.7 °F 62.2 °F 29.9 in SSW 5 mph 16 mph 95 % 0.02 in
12:12 63.9 °F 62.4 °F 29.9 in SSW 6 mph 16 mph 95 % 0.02 in
12:17 64 °F 62.6 °F 29.9 in WSW 9 mph 16 mph 95 % 0.02 in
12:22 64 °F 63 °F 29.9 in South 11 mph 15 mph 96 % 0.01 in
12:32 64.2 °F 63.1 °F 29.9 in WSW 8 mph 15 mph 96 % 0.01 in
12:37 64.2 °F 62.8 °F 29.9 in WSW 9 mph 16 mph 95 % 0.01 in
12:42 64.6 °F 63.5 °F 29.9 in SW 7 mph 16 mph 96 % 0.01 in
12:47 64.6 °F 63.1 °F 29.9 in SW 13 mph 16 mph 95 % 0.01 in
12:52 64.8 °F 63.7 °F 29.9 in SW 8 mph 16 mph 96 % 0.01 in
13:02 64.8 °F 63.3 °F 29.9 in SW 8 mph 16 mph 95 % 0.01 in
13:12 64.8 °F 63.3 °F 29.9 in SW 6 mph 16 mph 95 % 0.01 in
13:17 64.8 °F 63.3 °F 29.9 in WSW 7 mph 16 mph 95 % 0.01 in
13:27 65.1 °F 63.7 °F 29.9 in SW 7 mph 15 mph 95 % 0.01 in
13:32 65.1 °F 63.7 °F 29.9 in SW 7 mph 14 mph 95 % 0.01 in
13:37 65.1 °F 63.7 °F 29.9 in WSW 6 mph 14 mph 95 % 0.01 in
13:42 65.3 °F 64 °F 29.9 in SW 2 mph 14 mph 96 % 0 in
13:52 65.5 °F 64 °F 29.9 in SW 6 mph 14 mph 95 % 0 in
13:57 65.7 °F 64.2 °F 29.9 in WSW 7 mph 14 mph 95 % 0 in
14:02 65.8 °F 64.4 °F 29.9 in WSW 5 mph 16 mph 95 % 0 in
14:12 65.8 °F 64.4 °F 29.9 in WSW 9 mph 17 mph 95 % 0.01 in
14:17 66.2 °F 64.8 °F 29.9 in SW 4 mph 17 mph 95 % 0.01 in
14:22 66.6 °F 65.1 °F 29.9 in West 8 mph 19 mph 95 % 0.01 in
14:32 66.6 °F 64.8 °F 29.9 in WSW 7 mph 16 mph 94 % 0.01 in
14:37 66.9 °F 65.1 °F 29.9 in SW 9 mph 16 mph 94 % 0.01 in
14:42 67.3 °F 65.1 °F 29.9 in WSW 6 mph 15 mph 93 % 0.01 in
14:47 67.6 °F 65.3 °F 29.9 in SW 5 mph 15 mph 92 % 0.01 in
14:52 68 °F 65.7 °F 29.9 in SW 10 mph 14 mph 92 % 0.01 in
15:02 67.8 °F 65.1 °F 29.9 in WSW 13 mph 15 mph 91 % 0.01 in
15:12 67.6 °F 64.9 °F 29.9 in WSW 8 mph 15 mph 91 % 0 in
15:17 68.4 °F 66 °F 29.9 in SW 4 mph 15 mph 92 % 0.01 in
15:22 68.7 °F 65.3 °F 29.9 in SW 7 mph 13 mph 89 % 0.01 in
15:27 68.9 °F 65.5 °F 29.9 in WSW 7 mph 14 mph 89 % 0.01 in
15:32 69.4 °F 66 °F 29.9 in SW 6 mph 14 mph 89 % 0.01 in
15:42 68.9 °F 65.1 °F 29.9 in WSW 17 mph 17 mph 88 % 0.01 in
15:47 68.2 °F 64.8 °F 29.9 in SSW 4 mph 21 mph 89 % 0.01 in
15:52 68.2 °F 65.5 °F 29.9 in SSW 10 mph 21 mph 91 % 0.01 in
16:02 68.4 °F 65.7 °F 29.9 in West 6 mph 18 mph 91 % 0.01 in
16:12 67.3 °F 63.7 °F 29.9 in WNW 11 mph 20 mph 88 % 0.01 in
16:17 67.1 °F 64 °F 29.9 in WNW 8 mph 20 mph 90 % 0 in
16:22 67.3 °F 64.2 °F 29.9 in West 6 mph 15 mph 90 % 0 in
16:27 67.6 °F 64.6 °F 29.9 in West 6 mph 15 mph 90 % 0 in
16:32 67.8 °F 64.8 °F 29.9 in West 4 mph 13 mph 90 % 0 in
16:37 68.2 °F 64.8 °F 29.9 in WSW 5 mph 12 mph 89 % 0 in
16:42 68.4 °F 65.3 °F 29.9 in West 2 mph 12 mph 90 % 0 in
16:47 68.4 °F 64.9 °F 29.9 in WSW 4 mph 12 mph 89 % 0 in
16:52 68.5 °F 65.1 °F 29.9 in WNW 8 mph 8 mph 89 % 0 in
16:57 67.8 °F 64.8 °F 29.9 in WNW 8 mph 8 mph 90 % 0.05 in
17:02 67.3 °F 64.9 °F 29.9 in West 4 mph 12 mph 92 % 0.05 in
17:12 66.7 °F 64.4 °F 29.9 in West 4 mph 12 mph 92 % 0.08 in
17:17 66.9 °F 64.8 °F 29.9 in West 7 mph 10 mph 93 % 0.13 in
17:22 67.1 °F 64.9 °F 29.9 in West 5 mph 11 mph 93 % 0.13 in
17:27 67.5 °F 65.3 °F 29.9 in West 4 mph 11 mph 93 % 0.13 in
17:32 67.8 °F 65.5 °F 29.9 in SW 4 mph 11 mph 92 % 0.13 in
17:37 68.5 °F 66.2 °F 29.9 in SW 5 mph 12 mph 92 % 0.13 in
17:42 68.7 °F 66.4 °F 29.9 in SW 5 mph 12 mph 92 % 0.13 in
17:47 68.7 °F 66 °F 29.9 in West 3 mph 14 mph 91 % 0.13 in
17:52 68.9 °F 66.6 °F 29.9 in SSW 3 mph 15 mph 92 % 0.13 in
17:57 69.3 °F 66.6 °F 29.9 in WSW 5 mph 15 mph 91 % 0.06 in
18:02 69.4 °F 66.7 °F 29.9 in WSW 6 mph 15 mph 91 % 0.06 in
18:12 69.8 °F 66.7 °F 29.9 in WSW 3 mph 13 mph 90 % 0.06 in
18:17 70 °F 66.9 °F 29.9 in WSW 3 mph 12 mph 90 % 0.01 in
18:22 70 °F 66.9 °F 29.9 in WSW 5 mph 12 mph 90 % 0.01 in
18:27 70 °F 66.9 °F 29.9 in West 3 mph 11 mph 90 % 0 in
18:32 70 °F 66.6 °F 29.9 in SW 2 mph 11 mph 89 % 0 in
18:42 70.3 °F 66.9 °F 29.9 in SW 2 mph 9 mph 89 % 0 in
18:52 70.7 °F 66.9 °F 29.9 in SW 4 mph 9 mph 88 % 0 in
18:57 71.1 °F 66.9 °F 29.9 in West 5 mph 8 mph 87 % 0 in
19:02 71.4 °F 66.7 °F 29.9 in SW 6 mph 8 mph 85 % 0 in
19:07 71.4 °F 66.7 °F 29.9 in West 3 mph 11 mph 85 % 0 in
19:12 71.4 °F 66 °F 29.9 in WNW 2 mph 11 mph 83 % 0 in
19:17 71.6 °F 66.2 °F 29.9 in West 6 mph 11 mph 83 % 0 in
19:22 71.6 °F 65.8 °F 29.9 in WSW 5 mph 10 mph 82 % 0 in
19:27 71.4 °F 65.3 °F 29.9 in West 3 mph 13 mph 81 % 0 in
19:32 71.4 °F 65.7 °F 29.9 in West 3 mph 13 mph 82 % 0 in
19:37 71.4 °F 65.7 °F 29.9 in WNW 3 mph 11 mph 82 % 0 in
19:42 71.4 °F 66 °F 29.9 in SW 2 mph 9 mph 83 % 0 in
19:47 71.4 °F 65.3 °F 29.9 in WSW 2 mph 9 mph 81 % 0 in
19:52 71.4 °F 65.3 °F 29.9 in WSW 4 mph 8 mph 81 % 0 in
19:57 71.4 °F 65.3 °F 29.9 in WNW 2 mph 11 mph 81 % 0 in
20:02 71.4 °F 65.3 °F 29.9 in WSW 5 mph 11 mph 81 % 0 in
20:12 71.2 °F 65.1 °F 29.9 in WSW 3 mph 11 mph 81 % 0 in
20:17 71.1 °F 64.6 °F 29.9 in West 3 mph 6 mph 80 % 0 in
20:22 70.9 °F 64.4 °F 29.9 in WSW 3 mph 7 mph 80 % 0 in
20:32 70.5 °F 63.7 °F 29.9 in West 2 mph 7 mph 79 % 0 in
20:42 70.2 °F 63.7 °F 29.9 in WNW 1 mph 7 mph 80 % 0 in
20:47 70 °F 63.5 °F 29.9 in SW 2 mph 5 mph 80 % 0 in
20:52 69.8 °F 63.3 °F 29.9 in West 2 mph 5 mph 80 % 0 in
20:57 69.6 °F 63.1 °F 29.9 in WSW 3 mph 5 mph 80 % 0 in
21:02 69.4 °F 63 °F 29.9 in WSW 3 mph 5 mph 80 % 0 in
21:12 69.3 °F 62.8 °F 29.9 in WSW 1 mph 6 mph 80 % 0 in
21:17 69.3 °F 62.4 °F 29.9 in Calm   6 mph 79 % 0 in
21:27 69.1 °F 62.2 °F 29.9 in West 4 mph 5 mph 79 % 0 in
21:32 69.1 °F 61.9 °F 29.9 in WNW 3 mph 5 mph 78 % 0 in
21:37 68.9 °F 62.1 °F 29.9 in NW 2 mph 6 mph 79 % 0 in
21:42 68.5 °F 62.4 °F 29.9 in NW 2 mph 6 mph 81 % 0 in
21:47 68.2 °F 62.4 °F 29.9 in NW 2 mph 6 mph 82 % 0 in
21:52 67.8 °F 62.4 °F 29.9 in Calm   5 mph 83 % 0 in
21:57 67.6 °F 62.6 °F 29.9 in NNW 1 mph 4 mph 84 % 0 in
22:02 67.5 °F 62.8 °F 29.9 in Calm   4 mph 85 % 0 in
22:12 66.9 °F 62.2 °F 29.9 in NNW 4 mph 4 mph 85 % 0 in
22:17 66.7 °F 62.1 °F 29.9 in NW 2 mph 3 mph 85 % 0 in
22:22 66.6 °F 61.9 °F 29.9 in West 1 mph 4 mph 85 % 0 in
22:32 66.6 °F 61.9 °F 29.9 in Calm   4 mph 85 % 0 in
22:42 66.4 °F 61.7 °F 29.9 in Calm   2 mph 85 % 0 in
22:47 66.2 °F 61.5 °F 29.9 in Calm   2 mph 85 % 0 in
22:52 66 °F 61.7 °F 29.9 in NNW 1 mph 2 mph 86 % 0 in
22:57 65.8 °F 61.5 °F 29.9 in NNW 1 mph 1 mph 86 % 0 in
23:02 65.8 °F 61.5 °F 29.9 in NNW 1 mph 2 mph 86 % 0 in
23:12 65.7 °F 61.3 °F 29.9 in Calm   2 mph 86 % 0 in
23:17 65.5 °F 61.5 °F 29.9 in Calm   1 mph 87 % 0 in
23:22 65.5 °F 61.5 °F 29.9 in Calm   1 mph 87 % 0 in
23:27 65.3 °F 61.7 °F 29.9 in Calm   1 mph 88 % 0 in
23:37 64.9 °F 61.7 °F 29.9 in Calm     89 % 0 in
23:42 64.8 °F 61.7 °F 30 in Calm     90 % 0 in
23:52 64.6 °F 61.5 °F 30 in Calm     90 % 0 in
Meteo18
Compliments of Weather Underground - 4 mb

Script developed by  Jim McMurry - jmcmurry@mwt.net Adapted for the template by  Wim van der Kuil - Leuven-Template.eu

You find our weather info also at:

European Weather Network

Weather Underground

Equipment we use:

Weather-station
Davis Vue

Weather-program
Meteohub

Weather-server
Raspberry PI 2 B+

Provider
1 and 1

Davis Vue

Meteohub

Raspberry PI 2 B+

1 and 1